KGNV/GNV METAR and TAF weather

Enter ICAO airport designator
Station Type Date Time Source
KGNV METAR 2021/01/16 02:53 UTC NOAA

KGNV 160253Z 25008KT 10SM CLR 11/09 A2986 RMK AO2 SLP110 T01110094 53016


Station Type Date Time Source
KGNV Decoded METAR 2021/01/16 02:53 UTC NOAA

GAINESVILLE REGIONAL AIRPORT , FL, United States (KGNV) 29-42N 082-17W 45M
Jan 15, 2021 - 09:53 PM EST / 2021.01.16 0253 UTC
Wind: from the WSW (250 degrees) at 9 MPH (8 KT):0
Visibility: 10 mile(s):0
Sky conditions: clear
Temperature: 52.0 F (11.1 C)
Dew Point: 48.9 F (9.4 C)
Relative Humidity: 89%
Pressure (altimeter): 29.86 in. Hg (1011 hPa)
Pressure tendency: 0.05 inches (1.6 hPa) higher than three hours ago
ob: KGNV 160253Z 25008KT 10SM CLR 11/09 A2986 RMK AO2 SLP110 T01110094 53016
cycle: 3

Station Type Date Time Source
KGNV TAF 2021/01/15 22:16 UTC NOAA

TAF
AMD KGNV 152213Z 1522/1618 26008KT 6SM -SHRA SCT015 BKN025 OVC040
FM160000 26008KT P6SM SCT025 BKN060
FM160300 27003KT P6SM SCT250
FM161500 27010G20KT P6SM SKC

Example: see airport list